createdAt,value
2018-03-23T00:00:59.906Z,1006.61
2018-03-23T00:01:59.852Z,1006.60
2018-03-23T00:02:59.801Z,1006.61
2018-03-23T00:03:59.800Z,1006.56
2018-03-23T00:04:59.734Z,1006.57
2018-03-23T00:05:59.701Z,1006.57
2018-03-23T00:06:59.639Z,1006.56
2018-03-23T00:07:59.592Z,1006.52
2018-03-23T00:08:59.641Z,1006.55
2018-03-23T00:09:59.511Z,1006.54
2018-03-23T00:10:59.507Z,1006.55
2018-03-23T00:11:59.421Z,1006.55
2018-03-23T00:12:59.402Z,1006.57
2018-03-23T00:13:59.350Z,1006.54
2018-03-23T00:14:59.299Z,1006.54
2018-03-23T00:15:59.262Z,1006.52
2018-03-23T00:16:59.271Z,1006.54
2018-03-23T00:17:59.208Z,1006.53
2018-03-23T00:18:59.146Z,1006.49
2018-03-23T00:19:59.086Z,1006.49
2018-03-23T00:20:59.058Z,1006.52
2018-03-23T00:21:59.014Z,1006.48
2018-03-23T00:22:58.996Z,1006.47
2018-03-23T00:23:58.933Z,1006.46
2018-03-23T00:24:58.884Z,1006.46
2018-03-23T00:25:58.850Z,1006.47
2018-03-23T00:26:58.799Z,1006.48
2018-03-23T00:27:58.788Z,1006.43
2018-03-23T00:28:58.720Z,1006.42
2018-03-23T00:29:58.668Z,1006.45
2018-03-23T00:30:58.646Z,1006.42
2018-03-23T00:31:58.598Z,1006.42
2018-03-23T00:32:58.557Z,1006.41
2018-03-23T00:33:58.583Z,1006.36
2018-03-23T00:34:58.469Z,1006.37
2018-03-23T00:35:58.430Z,1006.37
2018-03-23T00:36:58.384Z,1006.40
2018-03-23T00:37:59.910Z,1006.35
2018-03-23T00:38:58.318Z,1006.35
2018-03-23T00:39:58.292Z,1006.33
2018-03-23T00:40:58.222Z,1006.32
2018-03-23T00:41:58.177Z,1006.35
2018-03-23T00:42:58.143Z,1006.31
2018-03-23T00:43:58.097Z,1006.29
2018-03-23T00:44:58.075Z,1006.28
2018-03-23T00:45:58.017Z,1006.28
2018-03-23T00:46:57.973Z,1006.29
2018-03-23T00:47:57.928Z,1006.27
2018-03-23T00:48:57.885Z,1006.30
2018-03-23T00:49:57.845Z,1006.28
2018-03-23T00:50:57.836Z,1006.29
2018-03-23T00:51:57.758Z,1006.27
2018-03-23T00:52:57.718Z,1006.30
2018-03-23T00:53:57.683Z,1006.27
2018-03-23T00:54:57.640Z,1006.24
2018-03-23T00:55:57.596Z,1006.29
2018-03-23T00:56:57.579Z,1006.26
2018-03-23T00:57:57.519Z,1006.25
2018-03-23T00:58:57.467Z,1006.22
2018-03-23T00:59:57.433Z,1006.21
2018-03-23T01:00:57.388Z,1006.22
2018-03-23T01:01:57.369Z,1006.18
2018-03-23T01:02:57.309Z,1006.17
2018-03-23T01:03:57.265Z,1006.17
2018-03-23T01:04:57.217Z,1006.16
2018-03-23T01:05:57.180Z,1006.15
2018-03-23T01:06:57.134Z,1006.11
2018-03-23T01:07:57.126Z,1006.09
2018-03-23T01:08:57.060Z,1006.10
2018-03-23T01:09:57.015Z,1006.10
2018-03-23T01:10:56.971Z,1006.06
2018-03-23T01:11:56.958Z,1006.10
2018-03-23T01:12:56.890Z,1006.07
2018-03-23T01:13:56.848Z,1006.08
2018-03-23T01:14:56.814Z,1006.06
2018-03-23T01:15:56.769Z,1006.04
2018-03-23T01:16:56.745Z,1006.00
2018-03-23T01:17:56.687Z,1005.98
2018-03-23T01:18:56.635Z,1005.98
2018-03-23T01:19:56.599Z,1005.98
2018-03-23T01:20:56.563Z,1005.97
2018-03-23T01:21:56.511Z,1005.96
2018-03-23T01:22:56.503Z,1005.95
2018-03-23T01:23:56.435Z,1005.94
2018-03-23T01:24:56.396Z,1005.92
2018-03-23T01:25:56.350Z,1005.94
2018-03-23T01:26:56.306Z,1005.92
2018-03-23T01:27:56.276Z,1005.91
2018-03-23T01:28:56.256Z,1005.86
2018-03-23T01:29:56.190Z,1005.89
2018-03-23T01:30:56.136Z,1005.87
2018-03-23T01:31:56.100Z,1005.86
2018-03-23T01:32:56.058Z,1005.82
2018-03-23T01:33:56.012Z,1005.82
2018-03-23T01:34:56.004Z,1005.82
2018-03-23T01:35:55.936Z,1005.82
2018-03-23T01:36:55.893Z,1005.84
2018-03-23T01:37:55.857Z,1005.80
2018-03-23T01:38:55.806Z,1005.76
2018-03-23T01:39:55.799Z,1005.80
2018-03-23T01:40:55.724Z,1005.79
2018-03-23T01:41:55.678Z,1005.75
2018-03-23T01:42:55.644Z,1005.75
2018-03-23T01:43:55.603Z,1005.75
2018-03-23T01:44:55.561Z,1005.75
2018-03-23T01:45:55.548Z,1005.73
2018-03-23T01:46:55.479Z,1005.70
2018-03-23T01:47:55.432Z,1005.74
2018-03-23T01:48:55.389Z,1005.75
2018-03-23T01:49:55.358Z,1005.74
2018-03-23T01:50:55.312Z,1005.71
2018-03-23T01:51:55.301Z,1005.71
2018-03-23T01:52:55.235Z,1005.67
2018-03-23T01:53:55.180Z,1005.68
2018-03-23T01:54:55.151Z,1005.67
2018-03-23T01:55:55.099Z,1005.68
2018-03-23T01:56:55.086Z,1005.63
2018-03-23T01:57:55.020Z,1005.62
2018-03-23T01:58:54.979Z,1005.63
2018-03-23T01:59:54.937Z,1005.62
2018-03-23T02:00:54.889Z,1005.59
2018-03-23T02:01:54.874Z,1005.59
2018-03-23T02:02:54.813Z,1005.57
2018-03-23T02:03:54.777Z,1005.56
2018-03-23T02:04:54.736Z,1005.56
2018-03-23T02:05:54.688Z,1005.54
2018-03-23T02:06:54.673Z,1005.57
2018-03-23T02:07:54.598Z,1005.55
2018-03-23T02:08:54.567Z,1005.52
2018-03-23T02:09:54.547Z,1005.54
2018-03-23T02:10:54.482Z,1005.51
2018-03-23T02:11:54.446Z,1005.49
2018-03-23T02:12:54.427Z,1005.45
2018-03-23T02:13:54.349Z,1005.46
2018-03-23T02:14:54.313Z,1005.42
2018-03-23T02:15:54.269Z,1005.44
2018-03-23T02:16:54.234Z,1005.46
2018-03-23T02:17:54.213Z,1005.40
2018-03-23T02:18:54.155Z,1005.39
2018-03-23T02:19:54.101Z,1005.37
2018-03-23T02:20:54.068Z,1005.35
2018-03-23T02:21:54.030Z,1005.34
2018-03-23T02:22:53.985Z,1005.33
2018-03-23T02:23:53.964Z,1005.35
2018-03-23T02:24:53.900Z,1005.32
2018-03-23T02:25:53.864Z,1005.29
2018-03-23T02:26:53.818Z,1005.30
2018-03-23T02:27:53.778Z,1005.25
2018-03-23T02:28:53.753Z,1005.25
2018-03-23T02:29:53.698Z,1005.26
2018-03-23T02:30:53.646Z,1005.25
2018-03-23T02:31:53.617Z,1005.18
2018-03-23T02:32:53.569Z,1005.19
2018-03-23T02:33:53.554Z,1005.22
2018-03-23T02:34:53.482Z,1005.20
2018-03-23T02:35:53.443Z,1005.16
2018-03-23T02:36:53.409Z,1005.15
2018-03-23T02:37:53.368Z,1005.13
2018-03-23T02:38:53.328Z,1005.16
2018-03-23T02:39:53.308Z,1005.16
2018-03-23T02:40:53.240Z,1005.16
2018-03-23T02:41:53.194Z,1005.16
2018-03-23T02:42:53.149Z,1005.13
2018-03-23T02:43:53.111Z,1005.13
2018-03-23T02:44:53.080Z,1005.09
2018-03-23T02:45:53.049Z,1005.12
2018-03-23T02:46:52.996Z,1005.13
2018-03-23T02:47:52.947Z,1005.12
2018-03-23T02:48:52.906Z,1005.13
2018-03-23T02:49:52.862Z,1005.10
2018-03-23T02:50:52.855Z,1005.13
2018-03-23T02:51:52.787Z,1005.12
2018-03-23T02:52:52.751Z,1005.11
2018-03-23T02:53:52.703Z,1005.12
2018-03-23T02:54:52.653Z,1005.09
2018-03-23T02:55:52.623Z,1005.07
2018-03-23T02:56:52.596Z,1005.08
2018-03-23T02:57:52.527Z,1005.08
2018-03-23T02:58:52.494Z,1005.06
2018-03-23T02:59:52.456Z,1005.06
2018-03-23T03:00:52.411Z,1005.02
2018-03-23T03:01:52.409Z,1005.01
2018-03-23T03:02:52.329Z,1005.01
2018-03-23T03:03:52.292Z,1005.01
2018-03-23T03:04:52.246Z,1005.03
2018-03-23T03:05:52.202Z,1004.99
2018-03-23T03:06:52.157Z,1004.98
2018-03-23T03:07:52.141Z,1004.97
2018-03-23T03:08:52.081Z,1004.96
2018-03-23T03:09:52.036Z,1004.94
2018-03-23T03:10:52.000Z,1004.94
2018-03-23T03:11:51.956Z,1004.92
2018-03-23T03:12:51.979Z,1004.93
2018-03-23T03:13:51.868Z,1004.92
2018-03-23T03:14:51.829Z,1004.93
2018-03-23T03:15:51.791Z,1004.91
2018-03-23T03:16:51.749Z,1004.88
2018-03-23T03:17:51.705Z,1004.87
2018-03-23T03:18:51.690Z,1004.83
2018-03-23T03:19:51.616Z,1004.85
2018-03-23T03:20:51.579Z,1004.78
2018-03-23T03:21:51.545Z,1004.77
2018-03-23T03:22:51.498Z,1004.73
2018-03-23T03:23:51.450Z,1004.73
2018-03-23T03:24:51.439Z,1004.72
2018-03-23T03:25:51.376Z,1004.69
2018-03-23T03:26:51.332Z,1004.70
2018-03-23T03:27:51.289Z,1004.69
2018-03-23T03:28:51.249Z,1004.66
2018-03-23T03:29:51.207Z,1004.68
2018-03-23T03:30:51.197Z,1004.66
2018-03-23T03:31:51.124Z,1004.68
2018-03-23T03:32:51.096Z,1004.62
2018-03-23T03:33:51.045Z,1004.64
2018-03-23T03:34:50.998Z,1004.66
2018-03-23T03:35:50.991Z,1004.67
2018-03-23T03:36:50.909Z,1004.63
2018-03-23T03:37:50.872Z,1004.62
2018-03-23T03:38:50.823Z,1004.64
2018-03-23T03:39:50.790Z,1004.62
2018-03-23T03:40:50.755Z,1004.57
2018-03-23T03:41:50.735Z,1004.64
2018-03-23T03:42:50.691Z,1004.62
2018-03-23T03:43:50.625Z,1004.57
2018-03-23T03:44:50.575Z,1004.58
2018-03-23T03:45:50.542Z,1004.61
2018-03-23T03:46:50.499Z,1004.57
2018-03-23T03:47:50.488Z,1004.58
2018-03-23T03:48:50.420Z,1004.54
2018-03-23T03:49:50.375Z,1004.54
2018-03-23T03:50:50.332Z,1004.54
2018-03-23T03:51:50.288Z,1004.52
2018-03-23T03:52:50.292Z,1004.58
2018-03-23T03:53:50.206Z,1004.59
2018-03-23T03:54:50.176Z,1004.55
2018-03-23T03:55:50.120Z,1004.56
2018-03-23T03:56:50.078Z,1004.53
2018-03-23T03:57:50.098Z,1004.53
2018-03-23T03:58:50.000Z,1004.52
2018-03-23T03:59:49.957Z,1004.49
2018-03-23T04:00:49.926Z,1004.50
2018-03-23T04:01:49.872Z,1004.51
2018-03-23T04:02:49.831Z,1004.51
2018-03-23T04:03:49.818Z,1004.47
2018-03-23T04:04:49.749Z,1004.47
2018-03-23T04:05:49.710Z,1004.49
2018-03-23T04:06:49.663Z,1004.45
2018-03-23T04:07:49.666Z,1004.46
2018-03-23T04:08:49.586Z,1004.46
2018-03-23T04:09:49.542Z,1004.51
2018-03-23T04:10:49.497Z,1004.47
2018-03-23T04:11:49.468Z,1004.50
2018-03-23T04:12:49.422Z,1004.48
2018-03-23T04:13:49.404Z,1004.42
2018-03-23T04:14:49.338Z,1004.46
2018-03-23T04:15:49.292Z,1004.46
2018-03-23T04:16:49.249Z,1004.44
2018-03-23T04:17:49.215Z,1004.46
2018-03-23T04:18:49.182Z,1004.45
2018-03-23T04:19:49.124Z,1004.47
2018-03-23T04:20:49.079Z,1004.45
2018-03-23T04:21:49.059Z,1004.41
2018-03-23T04:22:49.005Z,1004.48
2018-03-23T04:23:49.022Z,1004.47
2018-03-23T04:24:48.960Z,1004.46
2018-03-23T04:25:48.890Z,1004.48
2018-03-23T04:26:48.831Z,1004.49
2018-03-23T04:27:48.800Z,1004.46
2018-03-23T04:28:48.742Z,1004.48
2018-03-23T04:29:48.727Z,1004.45
2018-03-23T04:30:48.660Z,1004.42
2018-03-23T04:31:48.635Z,1004.43
2018-03-23T04:32:48.583Z,1004.43
2018-03-23T04:33:48.538Z,1004.43
2018-03-23T04:34:48.553Z,1004.44
2018-03-23T04:35:48.460Z,1004.47
2018-03-23T04:36:48.413Z,1004.50
2018-03-23T04:37:48.374Z,1004.45
2018-03-23T04:38:48.329Z,1004.46
2018-03-23T04:39:48.286Z,1004.48
2018-03-23T04:40:48.273Z,1004.46
2018-03-23T04:41:48.203Z,1004.44
2018-03-23T04:42:48.166Z,1004.41
2018-03-23T04:43:48.120Z,1004.38
2018-03-23T04:44:48.080Z,1004.42
2018-03-23T04:45:48.039Z,1004.39
2018-03-23T04:46:48.020Z,1004.34
2018-03-23T04:47:47.947Z,1004.32
2018-03-23T04:48:47.903Z,1004.27
2018-03-23T04:49:47.869Z,1004.25
2018-03-23T04:50:47.848Z,1004.24
2018-03-23T04:51:47.788Z,1004.25
2018-03-23T04:52:47.740Z,1004.21
2018-03-23T04:53:47.698Z,1004.25
2018-03-23T04:54:47.655Z,1004.21
2018-03-23T04:55:47.613Z,1004.21
2018-03-23T04:56:47.605Z,1004.18
2018-03-23T04:57:47.532Z,1004.20
2018-03-23T04:58:47.495Z,1004.19
2018-03-23T04:59:47.440Z,1004.18
2018-03-23T05:00:47.396Z,1004.19
2018-03-23T05:01:47.389Z,1004.13
2018-03-23T05:02:47.324Z,1004.14
2018-03-23T05:03:47.290Z,1004.14
2018-03-23T05:04:47.241Z,1004.13
2018-03-23T05:05:47.192Z,1004.09
2018-03-23T05:06:47.156Z,1004.12
2018-03-23T05:07:47.132Z,1004.09
2018-03-23T05:08:47.063Z,1004.10
2018-03-23T05:09:47.024Z,1004.10
2018-03-23T05:10:46.984Z,1004.10
2018-03-23T05:11:46.944Z,1004.09
2018-03-23T05:12:46.898Z,1004.11
2018-03-23T05:13:46.885Z,1004.13
2018-03-23T05:14:46.813Z,1004.12
2018-03-23T05:15:46.777Z,1004.11
2018-03-23T05:16:46.731Z,1004.11
2018-03-23T05:17:46.691Z,1004.10
2018-03-23T05:18:46.666Z,1004.10
2018-03-23T05:19:46.599Z,1004.11
2018-03-23T05:20:46.564Z,1004.06
2018-03-23T05:21:46.525Z,1004.07
2018-03-23T05:22:46.501Z,1004.08
2018-03-23T05:23:46.435Z,1004.08
2018-03-23T05:24:46.433Z,1004.08
2018-03-23T05:25:46.347Z,1004.04
2018-03-23T05:26:46.316Z,1004.04
2018-03-23T05:27:46.272Z,1004.10
2018-03-23T05:28:46.255Z,1004.09
2018-03-23T05:29:46.180Z,1004.03
2018-03-23T05:30:46.165Z,1004.05
2018-03-23T05:31:46.104Z,1004.04
2018-03-23T05:32:46.057Z,1004.07
2018-03-23T05:33:46.044Z,1004.06
2018-03-23T05:34:45.968Z,1004.08
2018-03-23T05:35:45.946Z,1004.07
2018-03-23T05:36:45.890Z,1004.07
2018-03-23T05:37:45.842Z,1004.10
2018-03-23T05:38:45.809Z,1004.09
2018-03-23T05:39:45.791Z,1004.09
2018-03-23T05:40:45.732Z,1004.11
2018-03-23T05:41:45.684Z,1004.13
2018-03-23T05:42:45.641Z,1004.11
2018-03-23T05:43:45.596Z,1004.15
2018-03-23T05:44:45.554Z,1004.14
2018-03-23T05:45:45.539Z,1004.10
2018-03-23T05:46:45.474Z,1004.13
2018-03-23T05:47:45.433Z,1004.17
2018-03-23T05:48:45.391Z,1004.12
2018-03-23T05:49:45.337Z,1004.11
2018-03-23T05:50:45.302Z,1004.10
2018-03-23T05:51:45.285Z,1004.10
2018-03-23T05:52:45.217Z,1004.12
2018-03-23T05:53:45.183Z,1004.15
2018-03-23T05:54:45.130Z,1004.14
2018-03-23T05:55:45.092Z,1004.11
2018-03-23T05:56:45.073Z,1004.13
2018-03-23T05:57:45.001Z,1004.11
2018-03-23T05:58:44.972Z,1004.10
2018-03-23T05:59:44.924Z,1004.08
2018-03-23T06:00:44.887Z,1004.09
2018-03-23T06:01:44.864Z,1004.08
2018-03-23T06:02:44.805Z,1004.07
2018-03-23T06:03:44.750Z,1004.05
2018-03-23T06:04:44.719Z,1004.06
2018-03-23T06:05:44.669Z,1004.07
2018-03-23T06:06:44.631Z,1004.10
2018-03-23T06:07:44.609Z,1004.10
2018-03-23T06:08:44.546Z,1004.04
2018-03-23T06:09:44.500Z,1004.07
2018-03-23T06:10:44.461Z,1004.09
2018-03-23T06:11:44.446Z,1004.04
2018-03-23T06:12:44.379Z,1004.01
2018-03-23T06:13:44.331Z,1004.04
2018-03-23T06:14:44.298Z,1004.04
2018-03-23T06:15:44.247Z,1004.05
2018-03-23T06:16:44.209Z,1004.03
2018-03-23T06:17:44.188Z,1004.03
2018-03-23T06:18:44.121Z,1004.06
2018-03-23T06:19:44.075Z,1004.06
2018-03-23T06:20:44.043Z,1004.04
2018-03-23T06:21:44.003Z,1004.03
2018-03-23T06:22:43.992Z,1004.05
2018-03-23T06:23:43.941Z,1004.00
2018-03-23T06:24:43.871Z,1004.06
2018-03-23T06:25:43.823Z,1004.01
2018-03-23T06:26:43.791Z,1004.05
2018-03-23T06:27:43.745Z,1004.05
2018-03-23T06:28:43.731Z,1004.02
2018-03-23T06:29:43.661Z,1004.01
2018-03-23T06:30:43.613Z,1004.00
2018-03-23T06:31:43.575Z,1003.99
2018-03-23T06:32:43.534Z,1003.98
2018-03-23T06:33:43.489Z,1004.01
2018-03-23T06:34:43.472Z,1003.99
2018-03-23T06:35:43.412Z,1004.01
2018-03-23T06:36:43.369Z,1004.00
2018-03-23T06:37:43.363Z,1003.99
2018-03-23T06:38:43.280Z,1003.96
2018-03-23T06:39:43.242Z,1003.91
2018-03-23T06:40:43.215Z,1003.97
2018-03-23T06:41:43.977Z,1003.93
2018-03-23T06:42:43.110Z,1003.91
2018-03-23T06:43:43.069Z,1003.94
2018-03-23T06:44:43.033Z,1003.95
2018-03-23T06:45:43.016Z,1003.94
2018-03-23T06:46:42.945Z,1003.92
2018-03-23T06:47:42.895Z,1003.93
2018-03-23T06:48:42.858Z,1003.95
2018-03-23T06:49:42.812Z,1003.94
2018-03-23T06:50:42.780Z,1003.96
2018-03-23T06:51:42.773Z,1003.94
2018-03-23T06:52:42.690Z,1003.95
2018-03-23T06:53:42.652Z,1003.98
2018-03-23T06:54:42.606Z,1003.97
2018-03-23T06:55:42.568Z,1003.93
2018-03-23T06:56:42.523Z,1003.91
2018-03-23T06:57:42.497Z,1003.94
2018-03-23T06:58:42.440Z,1003.92
2018-03-23T06:59:42.396Z,1003.91
2018-03-23T07:00:42.353Z,1003.92
2018-03-23T07:01:42.335Z,1003.90
2018-03-23T07:02:42.291Z,1003.93
2018-03-23T07:03:42.225Z,1003.93
2018-03-23T07:04:42.187Z,1003.92
2018-03-23T07:05:42.139Z,1003.94
2018-03-23T07:06:42.093Z,1003.89
2018-03-23T07:07:42.064Z,1003.94
2018-03-23T07:08:42.053Z,1003.94
2018-03-23T07:09:41.973Z,1003.91
2018-03-23T07:10:41.932Z,1003.96
2018-03-23T07:11:41.920Z,1003.94
2018-03-23T07:12:41.851Z,1003.93
2018-03-23T07:13:41.804Z,1003.91
2018-03-23T07:14:41.790Z,1003.89
2018-03-23T07:15:41.722Z,1003.88
2018-03-23T07:16:41.689Z,1003.91
2018-03-23T07:17:41.633Z,1003.90
2018-03-23T07:18:41.602Z,1003.90
2018-03-23T07:19:41.575Z,1003.88
2018-03-23T07:20:41.513Z,1003.94
2018-03-23T07:21:41.465Z,1003.91
2018-03-23T07:22:41.430Z,1003.89
2018-03-23T07:23:41.387Z,1003.90
2018-03-23T07:24:41.372Z,1003.90
2018-03-23T07:25:41.313Z,1003.90
2018-03-23T07:26:41.263Z,1003.92
2018-03-23T07:27:41.226Z,1003.94
2018-03-23T07:28:41.178Z,1003.96
2018-03-23T07:29:41.206Z,1003.96
2018-03-23T07:30:41.095Z,1003.94
2018-03-23T07:31:41.049Z,1003.90
2018-03-23T07:32:41.009Z,1003.91
2018-03-23T07:33:40.974Z,1003.89
2018-03-23T07:34:40.961Z,1003.91
2018-03-23T07:35:40.907Z,1003.93
2018-03-23T07:36:40.841Z,1003.93
2018-03-23T07:37:40.860Z,1003.91
2018-03-23T07:38:40.763Z,1003.94
2018-03-23T07:39:40.719Z,1003.89
2018-03-23T07:40:40.718Z,1003.90
2018-03-23T07:41:40.669Z,1003.89
2018-03-23T07:42:40.602Z,1003.90
2018-03-23T07:43:40.554Z,1003.87
2018-03-23T07:44:40.509Z,1003.88
2018-03-23T07:45:40.476Z,1003.86
2018-03-23T07:46:40.452Z,1003.86
2018-03-23T07:47:40.399Z,1003.86
2018-03-23T07:48:40.352Z,1003.86
2018-03-23T07:49:40.308Z,1003.79
2018-03-23T07:50:40.261Z,1003.79
2018-03-23T07:51:40.248Z,1003.76
2018-03-23T07:52:40.184Z,1003.77
2018-03-23T07:53:40.136Z,1003.74
2018-03-23T07:54:40.107Z,1003.77
2018-03-23T07:55:40.064Z,1003.73
2018-03-23T07:56:40.051Z,1003.75
2018-03-23T07:57:39.981Z,1003.78
2018-03-23T07:58:39.935Z,1003.72
2018-03-23T07:59:39.896Z,1003.72
2018-03-23T08:00:39.852Z,1003.74
2018-03-23T08:01:39.845Z,1003.74
2018-03-23T08:02:39.775Z,1003.71
2018-03-23T08:03:39.730Z,1003.75
2018-03-23T08:04:39.687Z,1003.74
2018-03-23T08:05:39.653Z,1003.69
2018-03-23T08:06:39.604Z,1003.69
2018-03-23T08:07:39.588Z,1003.66
2018-03-23T08:08:39.523Z,1003.67
2018-03-23T08:09:39.486Z,1003.69
2018-03-23T08:10:39.437Z,1003.65
2018-03-23T08:11:39.407Z,1003.62
2018-03-23T08:12:39.385Z,1003.70
2018-03-23T08:13:39.324Z,1003.66
2018-03-23T08:14:39.279Z,1003.63
2018-03-23T08:15:39.244Z,1003.65
2018-03-23T08:16:39.192Z,1003.65
2018-03-23T08:17:39.180Z,1003.67
2018-03-23T08:18:39.115Z,1003.69
2018-03-23T08:19:39.082Z,1003.65
2018-03-23T08:20:39.041Z,1003.68
2018-03-23T08:21:39.018Z,1003.62
2018-03-23T08:22:38.952Z,1003.64
2018-03-23T08:23:38.916Z,1003.66
2018-03-23T08:24:38.873Z,1003.62
2018-03-23T08:25:38.832Z,1003.64
2018-03-23T08:26:38.821Z,1003.61
2018-03-23T08:27:38.752Z,1003.58
2018-03-23T08:28:38.707Z,1003.60
2018-03-23T08:29:38.677Z,1003.64
2018-03-23T08:30:38.625Z,1003.61
2018-03-23T08:31:38.590Z,1003.58
2018-03-23T08:32:38.591Z,1003.61
2018-03-23T08:33:38.509Z,1003.60
2018-03-23T08:34:38.466Z,1003.64
2018-03-23T08:35:38.422Z,1003.61
2018-03-23T08:36:38.388Z,1003.57
2018-03-23T08:37:38.348Z,1003.57
2018-03-23T08:38:38.363Z,1003.51
2018-03-23T08:39:38.277Z,1003.56
2018-03-23T08:40:38.224Z,1003.60
2018-03-23T08:41:38.202Z,1003.57
2018-03-23T08:42:38.145Z,1003.53
2018-03-23T08:43:38.118Z,1003.53
2018-03-23T08:44:38.102Z,1003.57
2018-03-23T08:45:38.036Z,1003.51
2018-03-23T08:46:37.992Z,1003.51
2018-03-23T08:47:37.995Z,1003.51
2018-03-23T08:48:37.916Z,1003.46
2018-03-23T08:49:37.906Z,1003.48
2018-03-23T08:50:37.833Z,1003.41
2018-03-23T08:51:37.803Z,1003.46
2018-03-23T08:52:37.758Z,1003.47
2018-03-23T08:53:37.714Z,1003.42
2018-03-23T08:54:37.679Z,1003.49
2018-03-23T08:55:37.673Z,1003.43
2018-03-23T08:56:37.608Z,1003.46
2018-03-23T08:57:37.557Z,1003.49
2018-03-23T08:58:37.529Z,1003.51
2018-03-23T08:59:37.484Z,1003.48
2018-03-23T09:00:37.446Z,1003.50
2018-03-23T09:01:37.428Z,1003.49
2018-03-23T09:02:37.361Z,1003.46
2018-03-23T09:03:37.328Z,1003.53
2018-03-23T09:04:37.294Z,1003.52
2018-03-23T09:05:37.259Z,1003.51
2018-03-23T09:06:37.259Z,1003.54
2018-03-23T09:07:37.169Z,1003.55
2018-03-23T09:08:37.129Z,1003.46
2018-03-23T09:09:37.146Z,1003.51
2018-03-23T09:10:37.057Z,1003.50
2018-03-23T09:11:37.031Z,1003.46
2018-03-23T09:12:36.998Z,1003.42
2018-03-23T09:13:36.948Z,1003.39
2018-03-23T09:14:36.907Z,1003.32
2018-03-23T09:15:36.861Z,1003.31
2018-03-23T09:16:36.875Z,1003.27
2018-03-23T09:17:36.788Z,1003.26
2018-03-23T09:18:36.754Z,1003.23
2018-03-23T09:19:36.703Z,1003.27
2018-03-23T09:20:36.714Z,1003.22
2018-03-23T09:21:36.631Z,1003.23
2018-03-23T09:22:36.617Z,1003.20
2018-03-23T09:23:36.560Z,1003.18
2018-03-23T09:24:36.525Z,1003.15
2018-03-23T09:25:36.477Z,1003.10
2018-03-23T09:26:36.440Z,1003.13
2018-03-23T09:27:36.413Z,1003.06
2018-03-23T09:28:36.387Z,1003.09
2018-03-23T09:29:36.327Z,1003.02
2018-03-23T09:30:36.289Z,1003.03
2018-03-23T09:31:36.250Z,1003.02
2018-03-23T09:32:36.210Z,1003.08
2018-03-23T09:33:36.202Z,1003.05
2018-03-23T09:34:36.128Z,1003.02
2018-03-23T09:35:36.090Z,1003.00
2018-03-23T09:36:36.059Z,1003.06
2018-03-23T09:37:36.008Z,1003.06
2018-03-23T09:38:35.986Z,1003.02
2018-03-23T09:39:35.963Z,1003.01
2018-03-23T09:40:35.897Z,1002.95
2018-03-23T09:41:35.860Z,1002.90
2018-03-23T09:42:35.822Z,1002.89
2018-03-23T09:43:35.785Z,1002.91
2018-03-23T09:44:35.749Z,1002.93
2018-03-23T09:45:35.739Z,1002.95
2018-03-23T09:46:35.660Z,1002.91
2018-03-23T09:47:35.636Z,1002.92
2018-03-23T09:48:35.589Z,1002.85
2018-03-23T09:49:35.549Z,1002.87
2018-03-23T09:50:35.512Z,1002.87
2018-03-23T09:51:35.500Z,1002.83
2018-03-23T09:52:35.432Z,1002.80
2018-03-23T09:53:35.404Z,1002.83
2018-03-23T09:54:35.358Z,1002.79
2018-03-23T09:55:35.322Z,1002.83
2018-03-23T09:56:35.313Z,1002.83
2018-03-23T09:57:35.245Z,1002.82
2018-03-23T09:58:35.211Z,1002.81
2018-03-23T09:59:35.161Z,1002.87
2018-03-23T10:00:35.132Z,1002.82
2018-03-23T10:01:35.089Z,1002.81
2018-03-23T10:02:35.080Z,1002.78
2018-03-23T10:03:35.007Z,1002.74
2018-03-23T10:04:34.968Z,1002.69
2018-03-23T10:05:34.938Z,1002.68
2018-03-23T10:06:34.899Z,1002.66
2018-03-23T10:07:34.866Z,1002.70
2018-03-23T10:08:34.855Z,1002.65
2018-03-23T10:09:34.784Z,1002.63
2018-03-23T10:10:34.745Z,1002.58
2018-03-23T10:11:34.703Z,1002.54
2018-03-23T10:12:34.671Z,1002.55
2018-03-23T10:13:34.666Z,1002.51
2018-03-23T10:14:34.595Z,1002.50
2018-03-23T10:15:34.566Z,1002.48
2018-03-23T10:16:34.519Z,1002.49
2018-03-23T10:17:34.486Z,1002.46
2018-03-23T10:18:34.453Z,1002.43
2018-03-23T10:19:34.433Z,1002.41
2018-03-23T10:20:34.377Z,1002.38
2018-03-23T10:21:34.325Z,1002.40
2018-03-23T10:22:34.304Z,1002.38
2018-03-23T10:23:34.256Z,1002.39
2018-03-23T10:24:34.223Z,1002.36
2018-03-23T10:25:34.200Z,1002.36
2018-03-23T10:26:34.147Z,1002.30
2018-03-23T10:27:34.108Z,1002.26
2018-03-23T10:28:34.112Z,1002.33
2018-03-23T10:29:34.026Z,1002.32
2018-03-23T10:30:34.010Z,1002.29
2018-03-23T10:31:33.945Z,1002.28
2018-03-23T10:32:33.909Z,1002.26
2018-03-23T10:33:33.872Z,1002.24
2018-03-23T10:34:33.828Z,1002.22
2018-03-23T10:35:33.822Z,1002.18
2018-03-23T10:36:33.751Z,1002.18
2018-03-23T10:37:33.703Z,1002.19
2018-03-23T10:38:33.673Z,1002.18
2018-03-23T10:39:33.630Z,1002.12
2018-03-23T10:40:33.590Z,1002.11
2018-03-23T10:41:33.586Z,1002.11
2018-03-23T10:42:33.509Z,1002.10
2018-03-23T10:43:33.478Z,1002.10
2018-03-23T10:44:33.440Z,1002.10
2018-03-23T10:45:33.399Z,1002.07
2018-03-23T10:46:33.359Z,1002.06
2018-03-23T10:47:33.340Z,1002.08
2018-03-23T10:48:33.301Z,1002.08
2018-03-23T10:49:33.241Z,1002.07
2018-03-23T10:50:33.200Z,1002.07
2018-03-23T10:51:33.163Z,1002.08
2018-03-23T10:52:33.142Z,1002.05
2018-03-23T10:53:33.125Z,1002.02
2018-03-23T10:54:33.050Z,1002.04
2018-03-23T10:55:33.011Z,1002.01
2018-03-23T10:56:32.970Z,1002.03
2018-03-23T10:57:32.951Z,1002.03
2018-03-23T10:58:32.887Z,1001.99
2018-03-23T10:59:32.841Z,1001.98
2018-03-23T11:00:32.805Z,1001.95
2018-03-23T11:01:32.767Z,1001.95
2018-03-23T11:02:32.726Z,1001.95
2018-03-23T11:03:32.712Z,1001.95
2018-03-23T11:04:32.645Z,1001.92
2018-03-23T11:05:32.624Z,1001.93
2018-03-23T11:06:32.568Z,1001.93
2018-03-23T11:07:32.539Z,1001.91
2018-03-23T11:08:32.486Z,1001.91
2018-03-23T11:09:32.461Z,1001.86
2018-03-23T11:10:32.407Z,1001.90
2018-03-23T11:11:32.364Z,1001.88
2018-03-23T11:12:32.324Z,1001.90
2018-03-23T11:13:32.289Z,1001.90
2018-03-23T11:14:32.284Z,1001.93
2018-03-23T11:15:32.205Z,1001.87
2018-03-23T11:16:32.182Z,1001.85
2018-03-23T11:17:32.121Z,1001.80
2018-03-23T11:18:32.115Z,1001.82
2018-03-23T11:19:32.048Z,1001.84
2018-03-23T11:20:32.040Z,1001.77
2018-03-23T11:21:31.968Z,1001.79
2018-03-23T11:22:31.929Z,1001.78
2018-03-23T11:23:31.901Z,1001.73
2018-03-23T11:24:31.879Z,1001.73
2018-03-23T11:25:31.830Z,1001.71
2018-03-23T11:26:31.795Z,1001.68
2018-03-23T11:27:31.742Z,1001.65
2018-03-23T11:28:31.694Z,1001.63
2018-03-23T11:29:31.648Z,1001.64
2018-03-23T11:30:31.622Z,1001.61
2018-03-23T11:31:31.574Z,1001.61
2018-03-23T11:32:31.551Z,1001.61
2018-03-23T11:33:31.500Z,1001.58
2018-03-23T11:34:31.448Z,1001.56
2018-03-23T11:35:31.416Z,1001.57
2018-03-23T11:36:31.371Z,1001.55
2018-03-23T11:37:31.360Z,1001.55
2018-03-23T11:38:31.305Z,1001.55
2018-03-23T11:39:31.264Z,1001.56
2018-03-23T11:40:31.220Z,1001.52
2018-03-23T11:41:31.175Z,1001.53
2018-03-23T11:42:31.162Z,1001.51
2018-03-23T11:43:31.107Z,1001.50
2018-03-23T11:44:31.064Z,1001.48
2018-03-23T11:45:31.017Z,1001.48
2018-03-23T11:46:30.968Z,1001.42
2018-03-23T11:47:30.934Z,1001.39
2018-03-23T11:48:30.922Z,1001.39
2018-03-23T11:49:30.848Z,1001.36
2018-03-23T11:50:30.818Z,1001.39
2018-03-23T11:51:30.797Z,1001.32
2018-03-23T11:52:30.739Z,1001.34
2018-03-23T11:53:30.700Z,1001.32
2018-03-23T11:54:30.709Z,1001.31
2018-03-23T11:55:30.622Z,1001.32
2018-03-23T11:56:30.577Z,1001.29
2018-03-23T11:57:30.533Z,1001.29
2018-03-23T11:58:30.493Z,1001.25
2018-03-23T11:59:30.543Z,1001.24
2018-03-23T12:00:30.420Z,1001.23
2018-03-23T12:01:30.377Z,1001.22
2018-03-23T12:02:30.351Z,1001.18
2018-03-23T12:03:30.290Z,1001.18
2018-03-23T12:04:30.258Z,1001.16
2018-03-23T12:05:30.280Z,1001.16